Terminal Aerodrome Forecast
Issued by NWS North Platte, NE

Home | Current Version | Previous Version | Text Only | Print | Product List | Glossary On
Versions: 1 2 3 4 5 6 7 8 9 10 11 12 13 14
000
FTUS43 KLBF 172200 AAA
TAFVTN
TAF AMD
KVTN 172212Z 1722/1818 11015G25KT P6SM SCT120 OVC200
     FM172300 14012KT P6SM BKN200
     FM180300 23008KT P6SM SCT200
     FM180900 VRB06KT P6SM SCT250
     FM181500 32009KT P6SM SCT250=

USA.gov is the U.S. government's official web portal to all federal, state and local government web resources and services.